createdAt,value
2023-03-02T00:00:16.048Z,2.75
2023-03-02T00:01:04.101Z,2.80
2023-03-02T00:02:01.941Z,2.85
2023-03-02T00:02:44.139Z,2.79
2023-03-02T00:03:26.888Z,2.83
2023-03-02T00:04:17.343Z,2.84
2023-03-02T00:04:59.058Z,2.69
2023-03-02T00:05:41.753Z,2.63
2023-03-02T00:06:23.379Z,2.73
2023-03-02T00:07:08.667Z,2.76
2023-03-02T00:07:50.312Z,2.74
2023-03-02T00:08:33.108Z,2.69
2023-03-02T00:09:14.991Z,2.71
2023-03-02T00:09:56.651Z,2.69
2023-03-02T00:10:38.724Z,2.72
2023-03-02T00:11:21.513Z,2.72
2023-03-02T00:12:04.914Z,2.73
2023-03-02T00:12:46.912Z,2.38
2023-03-02T00:13:32.283Z,2.76
2023-03-02T00:14:13.973Z,2.79
2023-03-02T00:14:55.635Z,2.50
2023-03-02T00:15:37.279Z,2.79
2023-03-02T00:16:19.008Z,2.73
2023-03-02T00:17:02.633Z,2.79
2023-03-02T00:17:44.247Z,2.79
2023-03-02T00:18:25.866Z,2.33
2023-03-02T00:19:07.601Z,2.67
2023-03-02T00:19:49.231Z,2.61
2023-03-02T00:20:30.915Z,2.70
2023-03-02T00:21:12.779Z,2.60
2023-03-02T00:21:54.426Z,2.38
2023-03-02T00:22:40.599Z,2.53
2023-03-02T00:23:22.235Z,2.65
2023-03-02T00:24:04.561Z,2.58
2023-03-02T00:24:46.341Z,2.47
2023-03-02T00:25:28.711Z,2.15
2023-03-02T00:26:10.660Z,2.43
2023-03-02T00:26:53.179Z,2.51
2023-03-02T00:27:34.826Z,1.92
2023-03-02T00:28:16.461Z,2.54
2023-03-02T00:28:58.055Z,2.53
2023-03-02T00:29:39.832Z,2.44
2023-03-02T00:30:21.449Z,2.41
2023-03-02T00:31:06.672Z,2.60
2023-03-02T00:31:48.552Z,2.63
2023-03-02T00:32:30.210Z,2.54
2023-03-02T00:33:11.937Z,2.69
2023-03-02T00:33:56.267Z,2.02
2023-03-02T00:34:37.968Z,2.65
2023-03-02T00:35:19.645Z,2.61
2023-03-02T00:36:02.503Z,2.61
2023-03-02T00:36:44.447Z,2.65
2023-03-02T00:37:26.493Z,2.56
2023-03-02T00:38:08.474Z,2.66
2023-03-02T00:38:52.194Z,2.52
2023-03-02T00:39:33.817Z,2.63
2023-03-02T00:40:15.896Z,2.32
2023-03-02T00:40:59.338Z,2.52
2023-03-02T00:41:41.016Z,2.59
2023-03-02T00:42:22.936Z,2.59
2023-03-02T00:43:05.195Z,2.45
2023-03-02T00:43:47.086Z,2.61
2023-03-02T00:44:28.711Z,2.59
2023-03-02T00:45:10.779Z,2.58
2023-03-02T00:45:52.482Z,2.54
2023-03-02T00:46:34.343Z,2.43
2023-03-02T00:47:16.182Z,2.39
2023-03-02T00:47:57.832Z,2.51
2023-03-02T00:48:39.460Z,2.49
2023-03-02T00:49:21.373Z,2.41
2023-03-02T00:50:04.989Z,2.41
2023-03-02T00:50:46.672Z,2.46
2023-03-02T00:51:28.261Z,2.40
2023-03-02T00:52:09.835Z,2.28
2023-03-02T00:52:51.443Z,2.26
2023-03-02T00:53:34.154Z,2.43
2023-03-02T00:54:15.853Z,2.32
2023-03-02T00:54:57.636Z,2.44
2023-03-02T00:55:39.208Z,1.96
2023-03-02T00:56:21.041Z,2.40
2023-03-02T00:57:05.334Z,2.33
2023-03-02T00:57:54.922Z,2.17
2023-03-02T00:58:41.312Z,2.08
2023-03-02T00:59:26.830Z,2.43
2023-03-02T01:00:37.112Z,2.42
2023-03-02T01:01:21.332Z,2.39
2023-03-02T01:02:07.088Z,2.37
2023-03-02T01:02:50.514Z,2.39
2023-03-02T01:03:32.339Z,2.35
2023-03-02T01:04:14.006Z,2.33
2023-03-02T01:04:55.817Z,2.28
2023-03-02T01:05:38.163Z,2.23
2023-03-02T01:06:21.211Z,2.31
2023-03-02T01:07:11.445Z,2.19
2023-03-02T01:07:53.035Z,2.24
2023-03-02T01:08:37.738Z,2.20
2023-03-02T01:09:19.335Z,2.27
2023-03-02T01:10:00.946Z,2.22
2023-03-02T01:10:42.553Z,2.24
2023-03-02T01:11:24.215Z,2.00
2023-03-02T01:12:09.366Z,2.26
2023-03-02T01:12:50.993Z,2.20
2023-03-02T01:13:32.558Z,2.28
2023-03-02T01:14:15.186Z,2.28
2023-03-02T01:14:57.262Z,2.00
2023-03-02T01:15:38.853Z,1.80
2023-03-02T01:16:20.512Z,2.21
2023-03-02T01:17:04.038Z,2.20
2023-03-02T01:17:46.727Z,2.19
2023-03-02T01:18:28.366Z,2.21
2023-03-02T01:19:10.402Z,2.16
2023-03-02T01:19:52.731Z,2.23
2023-03-02T01:20:34.511Z,2.25
2023-03-02T01:21:16.693Z,2.26
2023-03-02T01:21:58.417Z,2.27
2023-03-02T01:22:40.096Z,2.26
2023-03-02T01:23:21.684Z,2.25
2023-03-02T01:24:03.434Z,1.38
2023-03-02T01:24:45.172Z,2.23
2023-03-02T01:25:26.916Z,2.23
2023-03-02T01:26:09.088Z,2.07
2023-03-02T01:26:50.667Z,2.12
2023-03-02T01:27:32.568Z,2.19
2023-03-02T01:28:14.179Z,2.11
2023-03-02T01:28:56.306Z,2.05
2023-03-02T01:29:38.120Z,2.19
2023-03-02T01:30:20.060Z,2.18
2023-03-02T01:31:03.106Z,1.72
2023-03-02T01:31:44.753Z,2.14
2023-03-02T01:32:26.450Z,2.15
2023-03-02T01:33:08.065Z,2.22
2023-03-02T01:33:49.690Z,2.14
2023-03-02T01:34:31.337Z,2.07
2023-03-02T01:35:13.044Z,2.13
2023-03-02T01:35:54.758Z,2.26
2023-03-02T01:36:36.539Z,2.27
2023-03-02T01:37:20.817Z,2.14
2023-03-02T01:38:02.452Z,2.29
2023-03-02T01:38:44.512Z,2.26
2023-03-02T01:39:26.289Z,2.25
2023-03-02T01:40:09.275Z,2.28
2023-03-02T01:40:50.992Z,2.29
2023-03-02T01:41:32.935Z,2.18
2023-03-02T01:42:14.885Z,2.29
2023-03-02T01:43:02.433Z,2.33
2023-03-02T01:43:44.061Z,2.07
2023-03-02T01:44:45.551Z,2.29
2023-03-02T01:45:52.905Z,2.29
2023-03-02T01:46:40.806Z,2.21
2023-03-02T01:47:39.068Z,2.21
2023-03-02T01:48:31.554Z,2.18
2023-03-02T01:49:15.130Z,2.07
2023-03-02T01:50:26.170Z,2.14
2023-03-02T01:51:15.899Z,1.99
2023-03-02T01:51:59.173Z,2.09
2023-03-02T01:52:41.501Z,2.07
2023-03-02T01:53:26.936Z,2.07
2023-03-02T01:54:17.118Z,1.95
2023-03-02T01:55:03.620Z,1.76
2023-03-02T01:55:46.105Z,2.06
2023-03-02T01:56:31.981Z,1.97
2023-03-02T01:57:13.932Z,2.08
2023-03-02T01:57:58.019Z,2.12
2023-03-02T01:58:40.152Z,2.00
2023-03-02T01:59:24.242Z,2.11
2023-03-02T02:00:10.454Z,2.08
2023-03-02T02:00:56.331Z,2.04
2023-03-02T02:01:41.175Z,1.97
2023-03-02T02:02:23.577Z,2.07
2023-03-02T02:03:11.698Z,2.12
2023-03-02T02:03:53.396Z,2.01
2023-03-02T02:04:37.656Z,2.04
2023-03-02T02:05:23.089Z,2.07
2023-03-02T02:06:32.897Z,2.05
2023-03-02T02:07:14.979Z,1.99
2023-03-02T02:07:56.988Z,1.94
2023-03-02T02:08:39.319Z,2.05
2023-03-02T02:09:24.015Z,2.07
2023-03-02T02:10:06.702Z,1.94
2023-03-02T02:10:49.031Z,2.05
2023-03-02T02:11:30.891Z,1.61
2023-03-02T02:12:15.394Z,1.93
2023-03-02T02:12:56.954Z,2.03
2023-03-02T02:13:38.874Z,1.97
2023-03-02T02:14:21.207Z,2.00
2023-03-02T02:15:04.120Z,1.84
2023-03-02T02:15:46.187Z,1.93
2023-03-02T02:16:31.453Z,1.98
2023-03-02T02:17:14.653Z,1.92
2023-03-02T02:17:56.462Z,1.64
2023-03-02T02:18:40.905Z,1.96
2023-03-02T02:19:40.235Z,1.95
2023-03-02T02:20:37.385Z,1.89
2023-03-02T02:21:20.766Z,1.96
2023-03-02T02:22:02.863Z,1.94
2023-03-02T02:23:05.751Z,1.92
2023-03-02T02:24:04.549Z,1.90
2023-03-02T02:24:53.261Z,1.93
2023-03-02T02:25:52.849Z,1.95
2023-03-02T02:26:43.807Z,1.94
2023-03-02T02:27:33.547Z,1.92
2023-03-02T02:28:30.816Z,1.84
2023-03-02T02:29:22.542Z,1.87
2023-03-02T02:30:06.578Z,1.86
2023-03-02T02:31:03.748Z,1.86
2023-03-02T02:32:02.692Z,1.85
2023-03-02T02:32:47.450Z,1.85
2023-03-02T02:33:29.440Z,1.83
2023-03-02T02:34:22.431Z,1.81
2023-03-02T02:35:14.485Z,1.77
2023-03-02T02:36:04.687Z,1.75
2023-03-02T02:36:49.389Z,1.73
2023-03-02T02:37:45.818Z,1.62
2023-03-02T02:38:31.698Z,1.66
2023-03-02T02:39:29.000Z,1.71
2023-03-02T02:40:16.507Z,1.70
2023-03-02T02:41:03.232Z,1.69
2023-03-02T02:41:50.920Z,1.71
2023-03-02T02:42:36.283Z,1.65
2023-03-02T02:43:20.563Z,1.51
2023-03-02T02:44:02.178Z,1.65
2023-03-02T02:44:43.865Z,1.62
2023-03-02T02:45:27.802Z,1.45
2023-03-02T02:46:11.656Z,1.65
2023-03-02T02:46:53.354Z,1.56
2023-03-02T02:47:36.275Z,1.59
2023-03-02T02:48:24.186Z,1.73
2023-03-02T02:49:06.490Z,1.74
2023-03-02T02:49:51.972Z,1.71
2023-03-02T02:50:35.286Z,1.76
2023-03-02T02:51:22.785Z,1.32
2023-03-02T02:52:06.131Z,1.71
2023-03-02T02:52:57.816Z,1.69
2023-03-02T02:53:58.916Z,1.53
2023-03-02T02:54:46.371Z,1.51
2023-03-02T02:55:30.218Z,1.62
2023-03-02T02:56:13.411Z,1.55
2023-03-02T02:56:57.474Z,1.56
2023-03-02T02:57:39.279Z,1.65
2023-03-02T02:58:27.263Z,1.65
2023-03-02T02:59:23.585Z,1.65
2023-03-02T03:00:06.712Z,1.21
2023-03-02T03:00:48.420Z,1.33
2023-03-02T03:01:30.272Z,1.46
2023-03-02T03:02:45.676Z,1.48
2023-03-02T03:03:34.453Z,1.69
2023-03-02T03:04:22.077Z,1.66
2023-03-02T03:05:04.122Z,1.66
2023-03-02T03:05:49.154Z,1.63
2023-03-02T03:06:38.205Z,1.58
2023-03-02T03:07:23.564Z,1.44
2023-03-02T03:08:10.615Z,1.62
2023-03-02T03:08:57.521Z,1.57
2023-03-02T03:09:57.439Z,1.54
2023-03-02T03:10:41.206Z,1.19
2023-03-02T03:11:26.701Z,1.60
2023-03-02T03:12:17.743Z,1.52
2023-03-02T03:12:59.582Z,1.57
2023-03-02T03:13:44.414Z,1.64
2023-03-02T03:14:36.499Z,1.54
2023-03-02T03:15:18.723Z,1.18
2023-03-02T03:16:02.813Z,1.28
2023-03-02T03:16:49.153Z,1.16
2023-03-02T03:17:30.832Z,1.55
2023-03-02T03:18:22.899Z,1.51
2023-03-02T03:19:17.272Z,1.57
2023-03-02T03:20:06.109Z,1.56
2023-03-02T03:20:50.311Z,1.55
2023-03-02T03:21:32.329Z,1.42
2023-03-02T03:22:16.267Z,1.52
2023-03-02T03:23:00.741Z,1.36
2023-03-02T03:23:44.923Z,1.44
2023-03-02T03:24:29.021Z,1.50
2023-03-02T03:25:15.281Z,1.54
2023-03-02T03:25:58.730Z,1.55
2023-03-02T03:26:40.646Z,1.59
2023-03-02T03:27:22.671Z,1.58
2023-03-02T03:28:04.581Z,1.60
2023-03-02T03:28:46.999Z,1.55
2023-03-02T03:29:29.772Z,1.64
2023-03-02T03:30:15.217Z,1.68
2023-03-02T03:30:58.109Z,1.55
2023-03-02T03:31:40.276Z,1.66
2023-03-02T03:32:22.229Z,1.62
2023-03-02T03:33:14.268Z,0.94
2023-03-02T03:33:56.453Z,1.64
2023-03-02T03:34:40.734Z,1.67
2023-03-02T03:35:28.217Z,1.68
2023-03-02T03:36:10.032Z,1.67
2023-03-02T03:36:52.325Z,1.49
2023-03-02T03:37:35.790Z,1.60
2023-03-02T03:38:18.216Z,1.44
2023-03-02T03:39:02.474Z,1.61
2023-03-02T03:39:46.322Z,1.48
2023-03-02T03:40:29.036Z,1.54
2023-03-02T03:41:10.854Z,1.59
2023-03-02T03:41:52.949Z,1.57
2023-03-02T03:42:35.927Z,1.62
2023-03-02T03:43:18.243Z,1.64
2023-03-02T03:44:05.425Z,1.62
2023-03-02T03:44:49.096Z,1.50
2023-03-02T03:45:31.173Z,1.20
2023-03-02T03:46:13.809Z,1.52
2023-03-02T03:46:55.606Z,1.61
2023-03-02T03:47:37.720Z,1.62
2023-03-02T03:48:20.963Z,1.57
2023-03-02T03:49:04.180Z,1.61
2023-03-02T03:49:45.896Z,1.48
2023-03-02T03:50:27.917Z,1.51
2023-03-02T03:51:09.875Z,1.59
2023-03-02T03:51:51.683Z,1.47
2023-03-02T03:52:33.405Z,1.56
2023-03-02T03:53:22.712Z,1.60
2023-03-02T03:54:08.063Z,1.57
2023-03-02T03:54:53.041Z,1.52
2023-03-02T03:55:34.658Z,1.53
2023-03-02T03:56:16.266Z,1.53
2023-03-02T03:56:57.902Z,1.52
2023-03-02T03:57:40.578Z,0.56
2023-03-02T03:58:24.008Z,1.52
2023-03-02T03:59:08.310Z,1.50
2023-03-02T03:59:58.102Z,1.49
2023-03-02T04:00:40.051Z,1.27
2023-03-02T04:01:34.998Z,1.48
2023-03-02T04:02:17.116Z,1.49
2023-03-02T04:02:59.218Z,1.40
2023-03-02T04:03:42.659Z,1.51
2023-03-02T04:04:33.986Z,1.52
2023-03-02T04:05:18.718Z,1.42
2023-03-02T04:06:03.573Z,1.56
2023-03-02T04:06:45.454Z,1.59
2023-03-02T04:07:27.271Z,1.62
2023-03-02T04:08:09.347Z,1.45
2023-03-02T04:08:51.275Z,1.62
2023-03-02T04:09:37.743Z,1.63
2023-03-02T04:10:20.344Z,1.48
2023-03-02T04:11:02.786Z,1.53
2023-03-02T04:11:46.722Z,1.62
2023-03-02T04:12:30.387Z,1.60
2023-03-02T04:13:12.526Z,1.55
2023-03-02T04:13:55.091Z,1.59
2023-03-02T04:14:36.938Z,1.42
2023-03-02T04:15:18.814Z,1.49
2023-03-02T04:16:02.408Z,1.48
2023-03-02T04:16:44.612Z,1.55
2023-03-02T04:17:27.431Z,1.53
2023-03-02T04:18:09.183Z,1.49
2023-03-02T04:18:51.395Z,1.50
2023-03-02T04:19:33.289Z,1.54
2023-03-02T04:20:16.612Z,1.39
2023-03-02T04:21:00.619Z,1.56
2023-03-02T04:21:46.701Z,1.56
2023-03-02T04:22:30.519Z,1.52
2023-03-02T04:23:12.409Z,1.55
2023-03-02T04:23:55.021Z,1.48
2023-03-02T04:24:37.773Z,1.54
2023-03-02T04:25:22.722Z,1.45
2023-03-02T04:26:06.762Z,1.40
2023-03-02T04:26:49.440Z,1.56
2023-03-02T04:27:31.518Z,1.58
2023-03-02T04:28:14.005Z,1.59
2023-03-02T04:28:56.827Z,1.51
2023-03-02T04:29:38.526Z,1.54
2023-03-02T04:30:25.636Z,1.54
2023-03-02T04:31:07.456Z,1.55
2023-03-02T04:31:49.353Z,1.56
2023-03-02T04:32:31.970Z,1.47
2023-03-02T04:33:13.639Z,1.55
2023-03-02T04:33:55.295Z,1.49
2023-03-02T04:34:37.551Z,1.42
2023-03-02T04:35:19.589Z,1.46
2023-03-02T04:36:02.068Z,1.55
2023-03-02T04:36:44.564Z,1.45
2023-03-02T04:37:28.028Z,1.36
2023-03-02T04:38:09.663Z,1.50
2023-03-02T04:38:51.750Z,1.40
2023-03-02T04:39:33.421Z,1.19
2023-03-02T04:40:17.416Z,1.55
2023-03-02T04:40:59.116Z,1.41
2023-03-02T04:41:40.680Z,1.38
2023-03-02T04:42:22.468Z,1.60
2023-03-02T04:43:04.098Z,1.48
2023-03-02T04:43:45.677Z,1.62
2023-03-02T04:44:27.513Z,1.46
2023-03-02T04:45:09.635Z,1.63
2023-03-02T04:45:52.508Z,1.61
2023-03-02T04:46:34.545Z,1.63
2023-03-02T04:47:16.499Z,1.58
2023-03-02T04:47:58.067Z,1.64
2023-03-02T04:48:39.811Z,1.44
2023-03-02T04:49:21.555Z,1.63
2023-03-02T04:50:03.485Z,1.49
2023-03-02T04:50:45.381Z,1.60
2023-03-02T04:51:39.253Z,1.59
2023-03-02T04:52:21.505Z,1.48
2023-03-02T04:53:03.208Z,1.22
2023-03-02T04:53:44.855Z,1.53
2023-03-02T04:54:27.357Z,1.47
2023-03-02T04:55:09.607Z,1.58
2023-03-02T04:55:51.198Z,1.46
2023-03-02T04:56:33.323Z,1.58
2023-03-02T04:57:15.080Z,1.50
2023-03-02T04:57:56.806Z,1.17
2023-03-02T04:58:38.360Z,1.60
2023-03-02T04:59:24.188Z,1.56
2023-03-02T05:00:09.804Z,1.59
2023-03-02T05:00:51.500Z,1.59
2023-03-02T05:01:33.121Z,1.56
2023-03-02T05:02:14.811Z,1.53
2023-03-02T05:02:58.201Z,1.52
2023-03-02T05:03:40.064Z,1.57
2023-03-02T05:04:21.964Z,1.37
2023-03-02T05:05:04.041Z,1.53
2023-03-02T05:05:45.654Z,1.57
2023-03-02T05:06:27.333Z,1.58
2023-03-02T05:07:09.080Z,1.59
2023-03-02T05:07:51.482Z,1.35
2023-03-02T05:08:34.067Z,1.58
2023-03-02T05:09:15.960Z,1.40
2023-03-02T05:09:57.545Z,1.43
2023-03-02T05:10:39.116Z,1.51
2023-03-02T05:11:23.654Z,1.46
2023-03-02T05:12:05.540Z,1.24
2023-03-02T05:13:02.707Z,1.49
2023-03-02T05:13:44.315Z,1.54
2023-03-02T05:14:26.731Z,1.50
2023-03-02T05:15:08.470Z,1.49
2023-03-02T05:15:51.640Z,1.54
2023-03-02T05:16:36.452Z,1.55
2023-03-02T05:17:18.462Z,1.59
2023-03-02T05:18:00.636Z,1.60
2023-03-02T05:18:42.307Z,1.50
2023-03-02T05:19:24.280Z,1.66
2023-03-02T05:20:07.224Z,1.67
2023-03-02T05:20:50.271Z,0.99
2023-03-02T05:21:31.897Z,1.55
2023-03-02T05:22:13.490Z,1.65
2023-03-02T05:22:56.041Z,1.64
2023-03-02T05:23:37.618Z,1.51
2023-03-02T05:24:19.286Z,1.61
2023-03-02T05:25:00.925Z,1.60
2023-03-02T05:25:42.646Z,1.40
2023-03-02T05:26:24.351Z,1.50
2023-03-02T05:27:06.015Z,1.51
2023-03-02T05:27:47.686Z,1.45
2023-03-02T05:28:29.602Z,1.42
2023-03-02T05:29:11.233Z,1.55
2023-03-02T05:29:53.003Z,1.55
2023-03-02T05:30:37.472Z,1.56
2023-03-02T05:31:23.383Z,1.55
2023-03-02T05:32:05.084Z,1.54
2023-03-02T05:32:46.784Z,1.50
2023-03-02T05:33:29.908Z,1.53
2023-03-02T05:34:14.586Z,1.50
2023-03-02T05:34:56.213Z,1.45
2023-03-02T05:35:38.368Z,1.46
2023-03-02T05:36:21.658Z,1.53
2023-03-02T05:37:04.691Z,1.46
2023-03-02T05:37:46.442Z,1.39
2023-03-02T05:38:31.425Z,1.44
2023-03-02T05:39:13.365Z,1.44
2023-03-02T05:39:54.974Z,1.24
2023-03-02T05:40:36.597Z,1.41
2023-03-02T05:41:18.525Z,1.38
2023-03-02T05:42:00.112Z,1.21
2023-03-02T05:42:43.123Z,1.27
2023-03-02T05:43:24.692Z,1.37
2023-03-02T05:44:09.445Z,1.38
2023-03-02T05:44:51.104Z,1.38
2023-03-02T05:45:36.421Z,1.30
2023-03-02T05:46:19.386Z,1.24
2023-03-02T05:47:02.063Z,1.25
2023-03-02T05:47:43.776Z,1.32
2023-03-02T05:48:25.518Z,1.22
2023-03-02T05:49:07.259Z,1.40
2023-03-02T05:49:48.855Z,1.31
2023-03-02T05:50:30.773Z,1.39
2023-03-02T05:51:12.721Z,1.38
2023-03-02T05:51:54.365Z,1.29
2023-03-02T05:52:35.963Z,1.32
2023-03-02T05:53:17.568Z,1.06
2023-03-02T05:53:59.234Z,1.32
2023-03-02T05:54:40.937Z,1.32
2023-03-02T05:55:22.585Z,1.26
2023-03-02T05:56:04.564Z,1.08
2023-03-02T05:56:46.116Z,1.24
2023-03-02T05:57:27.718Z,1.10
2023-03-02T05:58:13.017Z,1.26
2023-03-02T05:58:54.769Z,1.25
2023-03-02T05:59:36.334Z,1.21
2023-03-02T06:00:19.006Z,1.16
2023-03-02T06:01:00.657Z,1.30
2023-03-02T06:01:42.289Z,1.23
2023-03-02T06:02:23.949Z,1.34
2023-03-02T06:03:05.611Z,1.24
2023-03-02T06:03:47.310Z,1.36
2023-03-02T06:04:28.983Z,1.13
2023-03-02T06:05:16.861Z,1.20
2023-03-02T06:05:58.572Z,0.76
2023-03-02T06:06:40.476Z,1.16
2023-03-02T06:07:22.233Z,1.32
2023-03-02T06:08:04.456Z,1.30
2023-03-02T06:08:46.099Z,1.32
2023-03-02T06:09:27.752Z,1.25
2023-03-02T06:10:12.258Z,1.33
2023-03-02T06:10:57.123Z,1.32
2023-03-02T06:11:38.818Z,0.88
2023-03-02T06:12:20.470Z,1.32
2023-03-02T06:13:02.115Z,1.26
2023-03-02T06:13:43.692Z,1.33
2023-03-02T06:14:25.317Z,1.34
2023-03-02T06:15:08.129Z,1.36
2023-03-02T06:15:49.770Z,1.32
2023-03-02T06:16:33.693Z,1.39
2023-03-02T06:17:15.639Z,1.36
2023-03-02T06:17:57.703Z,1.43
2023-03-02T06:18:41.394Z,1.44
2023-03-02T06:19:23.225Z,1.33
2023-03-02T06:20:10.621Z,1.05
2023-03-02T06:20:52.373Z,1.49
2023-03-02T06:21:33.991Z,1.31
2023-03-02T06:22:15.585Z,1.46
2023-03-02T06:22:57.261Z,1.51
2023-03-02T06:23:38.915Z,1.16
2023-03-02T06:24:20.543Z,1.49
2023-03-02T06:25:02.192Z,1.51
2023-03-02T06:25:48.561Z,1.53
2023-03-02T06:26:30.324Z,1.60
2023-03-02T06:27:13.421Z,1.65
2023-03-02T06:27:55.005Z,1.69
2023-03-02T06:28:49.826Z,1.80
2023-03-02T06:29:33.500Z,1.87
2023-03-02T06:30:16.994Z,1.86
2023-03-02T06:31:00.337Z,1.92
2023-03-02T06:31:41.956Z,1.99
2023-03-02T06:32:23.663Z,2.06
2023-03-02T06:33:05.299Z,2.00
2023-03-02T06:33:46.912Z,2.11
2023-03-02T06:34:29.573Z,2.15
2023-03-02T06:35:12.513Z,2.18
2023-03-02T06:35:54.256Z,2.19
2023-03-02T06:36:38.673Z,2.12
2023-03-02T06:37:20.360Z,2.21
2023-03-02T06:38:02.010Z,2.28
2023-03-02T06:38:43.609Z,2.35
2023-03-02T06:39:25.377Z,2.05
2023-03-02T06:40:10.942Z,2.09
2023-03-02T06:40:52.834Z,2.50
2023-03-02T06:41:34.595Z,2.11
2023-03-02T06:42:16.384Z,2.48
2023-03-02T06:43:00.933Z,2.40
2023-03-02T06:43:43.502Z,2.31
2023-03-02T06:44:25.259Z,2.33
2023-03-02T06:45:09.622Z,1.82
2023-03-02T06:45:51.279Z,2.19
2023-03-02T06:46:33.248Z,2.00
2023-03-02T06:47:15.098Z,2.14
2023-03-02T06:47:56.700Z,2.11
2023-03-02T06:48:38.793Z,2.11
2023-03-02T06:49:20.534Z,1.92
2023-03-02T06:50:02.289Z,2.01
2023-03-02T06:50:43.918Z,2.20
2023-03-02T06:51:25.844Z,2.09
2023-03-02T06:52:07.544Z,2.15
2023-03-02T06:52:49.158Z,2.21
2023-03-02T06:53:30.779Z,2.23
2023-03-02T06:54:12.410Z,2.04
2023-03-02T06:54:54.974Z,2.24
2023-03-02T06:55:36.585Z,2.43
2023-03-02T06:56:18.219Z,2.48
2023-03-02T06:56:59.904Z,2.55
2023-03-02T06:57:41.522Z,2.57
2023-03-02T06:58:23.065Z,2.54
2023-03-02T06:59:04.725Z,2.61
2023-03-02T06:59:46.354Z,2.40
2023-03-02T07:00:28.039Z,2.58
2023-03-02T07:01:09.775Z,2.38
2023-03-02T07:01:54.461Z,2.28
2023-03-02T07:02:37.218Z,2.65
2023-03-02T07:03:18.911Z,2.69
2023-03-02T07:04:00.619Z,2.52
2023-03-02T07:04:42.348Z,2.50
2023-03-02T07:05:24.510Z,2.59
2023-03-02T07:06:06.615Z,2.65
2023-03-02T07:06:48.329Z,2.61
2023-03-02T07:07:30.047Z,2.48
2023-03-02T07:08:11.858Z,2.52
2023-03-02T07:08:53.606Z,2.48
2023-03-02T07:09:35.812Z,2.46
2023-03-02T07:10:17.750Z,2.44
2023-03-02T07:10:59.713Z,2.52
2023-03-02T07:11:41.644Z,2.52
2023-03-02T07:12:23.298Z,2.03
2023-03-02T07:13:05.749Z,2.25
2023-03-02T07:13:48.034Z,2.51
2023-03-02T07:14:29.619Z,2.57
2023-03-02T07:15:14.025Z,2.44
2023-03-02T07:15:55.671Z,2.56
2023-03-02T07:16:37.357Z,2.57
2023-03-02T07:17:19.250Z,2.57
2023-03-02T07:18:00.953Z,2.42
2023-03-02T07:18:42.660Z,2.50
2023-03-02T07:19:24.377Z,2.49
2023-03-02T07:20:06.685Z,2.52
2023-03-02T07:20:48.356Z,2.02
2023-03-02T07:21:30.543Z,2.61
2023-03-02T07:22:12.348Z,2.67
2023-03-02T07:22:54.145Z,2.40
2023-03-02T07:23:36.161Z,2.78
2023-03-02T07:24:17.818Z,2.78
2023-03-02T07:24:59.444Z,2.74
2023-03-02T07:25:41.101Z,2.79
2023-03-02T07:26:22.828Z,2.80
2023-03-02T07:27:04.481Z,2.82
2023-03-02T07:27:46.229Z,2.68
2023-03-02T07:28:27.941Z,2.47
2023-03-02T07:29:09.653Z,2.76
2023-03-02T07:29:51.368Z,2.84
2023-03-02T07:30:33.096Z,2.84
2023-03-02T07:31:14.777Z,2.90
2023-03-02T07:31:59.272Z,2.96
2023-03-02T07:32:41.839Z,2.87
2023-03-02T07:33:23.437Z,2.95
2023-03-02T07:34:05.247Z,2.86
2023-03-02T07:34:46.976Z,3.05
2023-03-02T07:35:28.680Z,2.95
2023-03-02T07:36:10.398Z,3.18
2023-03-02T07:36:52.673Z,2.93
2023-03-02T07:37:34.276Z,3.16
2023-03-02T07:38:16.003Z,3.34
2023-03-02T07:38:57.614Z,3.23
2023-03-02T07:39:39.276Z,3.42
2023-03-02T07:40:20.947Z,3.02
2023-03-02T07:41:07.128Z,3.56
2023-03-02T07:41:48.711Z,3.51
2023-03-02T07:42:30.381Z,3.76
2023-03-02T07:43:13.702Z,3.79
2023-03-02T07:43:56.012Z,3.97
2023-03-02T07:44:37.835Z,4.01
2023-03-02T07:45:21.441Z,4.02
2023-03-02T07:46:04.492Z,3.96
2023-03-02T07:46:46.160Z,4.04
2023-03-02T07:47:27.857Z,4.24
2023-03-02T07:48:09.569Z,4.30
2023-03-02T07:48:51.228Z,4.31
2023-03-02T07:49:33.053Z,4.41
2023-03-02T07:50:14.873Z,4.43
2023-03-02T07:51:01.022Z,4.47
2023-03-02T07:51:42.711Z,4.42
2023-03-02T07:52:24.534Z,4.38
2023-03-02T07:53:06.159Z,4.48
2023-03-02T07:53:47.803Z,4.34
2023-03-02T07:54:30.492Z,4.43
2023-03-02T07:55:12.078Z,4.46
2023-03-02T07:55:53.891Z,4.23
2023-03-02T07:56:35.526Z,4.57
2023-03-02T07:57:18.148Z,4.61
2023-03-02T07:57:59.781Z,4.72
2023-03-02T07:58:41.467Z,4.72
2023-03-02T07:59:23.599Z,4.74
2023-03-02T08:00:05.994Z,4.78
2023-03-02T08:00:53.371Z,4.89
2023-03-02T08:01:35.415Z,4.66
2023-03-02T08:02:20.252Z,4.93
2023-03-02T08:03:02.123Z,5.03
2023-03-02T08:03:43.822Z,5.01
2023-03-02T08:04:26.176Z,5.27
2023-03-02T08:05:08.519Z,5.35
2023-03-02T08:05:50.248Z,5.26
2023-03-02T08:06:32.519Z,5.40
2023-03-02T08:07:14.311Z,5.21
2023-03-02T08:07:55.900Z,5.45
2023-03-02T08:08:38.639Z,5.44
2023-03-02T08:09:20.276Z,5.41
2023-03-02T08:10:02.065Z,5.31
2023-03-02T08:10:43.740Z,5.31
2023-03-02T08:11:25.764Z,5.31
2023-03-02T08:12:07.574Z,5.62
2023-03-02T08:12:49.219Z,5.77
2023-03-02T08:13:30.857Z,5.90
2023-03-02T08:14:12.686Z,6.03
2023-03-02T08:14:54.437Z,6.09
2023-03-02T08:15:36.070Z,6.08
2023-03-02T08:16:18.094Z,6.03
2023-03-02T08:16:59.869Z,5.55
2023-03-02T08:17:41.508Z,6.39
2023-03-02T08:18:23.169Z,6.30
2023-03-02T08:19:04.753Z,6.23
2023-03-02T08:19:46.962Z,6.32
2023-03-02T08:20:28.616Z,6.16
2023-03-02T08:21:16.875Z,6.42
2023-03-02T08:21:58.720Z,6.06
2023-03-02T08:22:40.612Z,6.25
2023-03-02T08:23:22.722Z,6.27
2023-03-02T08:24:05.042Z,5.98
2023-03-02T08:24:48.090Z,6.00
2023-03-02T08:25:30.200Z,5.95
2023-03-02T08:26:14.770Z,5.97
2023-03-02T08:27:02.503Z,5.66
2023-03-02T08:27:46.011Z,6.02
2023-03-02T08:28:27.790Z,6.06
2023-03-02T08:29:09.454Z,6.07
2023-03-02T08:29:51.115Z,6.07
2023-03-02T08:30:32.815Z,6.21
2023-03-02T08:31:14.798Z,6.26
2023-03-02T08:31:58.894Z,6.20
2023-03-02T08:32:40.888Z,6.18
2023-03-02T08:33:22.597Z,6.37
2023-03-02T08:34:04.436Z,6.55
2023-03-02T08:34:46.065Z,6.63
2023-03-02T08:35:27.714Z,6.68
2023-03-02T08:36:13.841Z,6.39
2023-03-02T08:36:55.593Z,6.87
2023-03-02T08:37:37.283Z,6.67
2023-03-02T08:38:18.942Z,6.72
2023-03-02T08:39:00.572Z,6.76
2023-03-02T08:39:42.157Z,6.78
2023-03-02T08:40:23.829Z,6.87
2023-03-02T08:41:07.934Z,6.93
2023-03-02T08:41:53.630Z,7.00
2023-03-02T08:42:35.253Z,7.07
2023-03-02T08:43:17.310Z,6.74
2023-03-02T08:43:59.085Z,7.14
2023-03-02T08:44:40.726Z,7.20
2023-03-02T08:45:25.704Z,7.22
2023-03-02T08:46:07.822Z,7.47
2023-03-02T08:46:50.440Z,7.10
2023-03-02T08:47:32.619Z,7.62
2023-03-02T08:48:14.267Z,7.58
2023-03-02T08:48:56.236Z,7.81
2023-03-02T08:49:37.900Z,7.71
2023-03-02T08:50:19.525Z,7.87
2023-03-02T08:51:02.548Z,7.97
2023-03-02T08:51:45.513Z,7.90
2023-03-02T08:52:27.221Z,7.87
2023-03-02T08:53:09.410Z,8.02
2023-03-02T08:53:55.026Z,8.10
2023-03-02T08:54:36.833Z,8.41
2023-03-02T08:55:18.533Z,8.37
2023-03-02T08:56:00.455Z,8.65
2023-03-02T08:56:43.712Z,8.77
2023-03-02T08:57:25.329Z,8.60
2023-03-02T08:58:06.955Z,8.77
2023-03-02T08:58:49.837Z,8.83
2023-03-02T08:59:31.557Z,8.93
2023-03-02T09:00:14.833Z,8.86
2023-03-02T09:00:56.536Z,8.97
2023-03-02T09:01:39.315Z,9.17
2023-03-02T09:02:21.056Z,9.31
2023-03-02T09:03:02.728Z,9.33
2023-03-02T09:03:45.155Z,9.39
2023-03-02T09:04:26.950Z,9.10
2023-03-02T09:05:08.977Z,9.50
2023-03-02T09:05:51.095Z,9.48
2023-03-02T09:06:36.523Z,9.56
2023-03-02T09:07:18.252Z,9.51
2023-03-02T09:08:02.725Z,9.16
2023-03-02T09:08:44.697Z,9.20
2023-03-02T09:09:26.333Z,8.93
2023-03-02T09:10:08.538Z,9.05
2023-03-02T09:10:50.187Z,8.97
2023-03-02T09:11:32.959Z,9.38
2023-03-02T09:12:14.792Z,9.46
2023-03-02T09:12:56.491Z,9.53
2023-03-02T09:13:38.527Z,9.36
2023-03-02T09:14:20.248Z,9.22
2023-03-02T09:15:01.944Z,9.35
2023-03-02T09:15:44.947Z,9.40
2023-03-02T09:16:30.891Z,9.00
2023-03-02T09:17:17.879Z,9.13
2023-03-02T09:17:59.541Z,9.23
2023-03-02T09:18:42.033Z,9.04
2023-03-02T09:19:23.710Z,9.14
2023-03-02T09:20:06.046Z,8.82
2023-03-02T09:20:56.904Z,9.18
2023-03-02T09:21:38.619Z,9.13
2023-03-02T09:22:20.808Z,9.05
2023-03-02T09:23:02.564Z,9.26
2023-03-02T09:23:44.258Z,8.96
2023-03-02T09:24:25.902Z,8.91
2023-03-02T09:25:07.800Z,9.15
2023-03-02T09:25:50.351Z,9.00
2023-03-02T09:26:32.074Z,8.96
2023-03-02T09:27:14.303Z,8.96
2023-03-02T09:27:56.007Z,9.15
2023-03-02T09:28:38.383Z,9.42
2023-03-02T09:29:20.093Z,9.58
2023-03-02T09:30:01.805Z,9.57
2023-03-02T09:30:58.182Z,9.70
2023-03-02T09:31:41.997Z,9.71
2023-03-02T09:32:24.068Z,9.93
2023-03-02T09:33:05.837Z,9.81
2023-03-02T09:33:50.242Z,9.76
2023-03-02T09:34:31.893Z,9.65
2023-03-02T09:35:14.704Z,9.62
2023-03-02T09:35:59.277Z,9.41
2023-03-02T09:36:40.952Z,9.39
2023-03-02T09:37:22.628Z,9.38
2023-03-02T09:38:04.593Z,9.09